Time;durP1;ratioP1;P1;durP2;ratioP2;P2;SDS_P1;SDS_P2;PMS_P1;PMS_P2;Temp;Humidity;BMP_temperature;BMP_pressure;BME280_temperature;BME280_humidity;BME280_pressure;Samples;Min_cycle;Max_cycle;Signal;HPM_P1;HPM_P2
2023/03/21 00:02:17;;;;;;;15.93;5.75;;;;;;;;;;5031715;28;20171;-48
2023/03/21 00:04:42;;;;;;;11.82;5.10;;;10.70;99.90;;;;;;5031481;28;20736;-48
2023/03/21 00:07:08;;;;;;;15.93;5.38;;;10.70;99.90;;;;;;5031690;28;20591;-49
2023/03/21 00:09:34;;;;;;;12.27;4.72;;;;;;;;;;5031513;28;20543;-55
2023/03/21 00:12:00;;;;;;;11.98;4.80;;;10.70;99.90;;;;;;5031519;28;20163;-56
2023/03/21 00:14:29;;;;;;;13.18;4.43;;;10.70;99.90;;;;;;5031779;28;20175;-56
2023/03/21 00:16:55;;;;;;;18.60;5.85;;;10.70;99.90;;;;;;5031539;28;20186;-56
2023/03/21 00:19:23;;;;;;;9.20;4.70;;;10.70;99.90;;;;;;5031388;28;20167;-56
2023/03/21 00:21:51;;;;;;;15.13;5.43;;;10.60;99.90;;;;;;5030552;28;20175;-56
2023/03/21 00:24:16;;;;;;;16.48;5.18;;;10.60;99.90;;;;;;5031226;28;20678;-56
2023/03/21 00:26:42;;;;;;;13.45;5.43;;;10.70;99.90;;;;;;5031072;28;20160;-57
2023/03/21 00:29:08;;;;;;;17.38;4.88;;;10.60;99.90;;;;;;5031790;28;20183;-56
2023/03/21 00:31:33;;;;;;;13.43;4.82;;;10.60;99.90;;;;;;5031081;28;20233;-56
2023/03/21 00:34:00;;;;;;;18.38;5.30;;;10.70;99.90;;;;;;5030501;28;20183;-54
2023/03/21 00:36:26;;;;;;;14.07;5.10;;;;;;;;;;5031273;28;20229;-55
2023/03/21 00:38:52;;;;;;;10.60;4.70;;;10.60;99.90;;;;;;5031062;28;20176;-56
2023/03/21 00:41:18;;;;;;;10.27;4.70;;;10.70;99.90;;;;;;5031091;28;20170;-54
2023/03/21 00:43:43;;;;;;;14.90;5.43;;;10.70;99.90;;;;;;5031061;28;20203;-48
2023/03/21 00:46:09;;;;;;;16.92;6.07;;;10.70;99.90;;;;;;5031280;28;20167;-50
2023/03/21 00:48:35;;;;;;;15.48;5.63;;;10.70;99.90;;;;;;5031703;28;20286;-47
2023/03/21 00:51:00;;;;;;;11.80;5.32;;;10.70;99.90;;;;;;5030886;28;20255;-46
2023/03/21 00:53:27;;;;;;;12.20;5.53;;;10.70;99.90;;;;;;5030974;28;20229;-49
2023/03/21 00:55:52;;;;;;;13.25;5.65;;;10.70;99.90;;;;;;5030940;28;20187;-50
2023/03/21 00:58:18;;;;;;;14.23;4.95;;;10.70;99.90;;;;;;5030914;28;20206;-48
2023/03/21 01:00:45;;;;;;;17.95;5.32;;;10.60;99.90;;;;;;5031239;28;20168;-46
2023/03/21 01:03:13;;;;;;;9.95;4.72;;;10.60;99.90;;;;;;5030439;28;20620;-47
2023/03/21 01:08:27;;;;;;;11.73;5.03;;;10.70;99.90;;;;;;5030758;28;20253;-46
2023/03/21 01:10:54;;;;;;;13.20;4.32;;;10.60;99.90;;;;;;5031132;28;20542;-46
2023/03/21 01:13:22;;;;;;;13.38;5.00;;;10.60;99.90;;;;;;5030825;28;20174;-46
2023/03/21 01:15:51;;;;;;;12.88;5.18;;;10.60;99.90;;;;;;5030746;28;20175;-47
2023/03/21 01:18:18;;;;;;;17.25;5.43;;;10.70;99.90;;;;;;5030717;28;20171;-47
2023/03/21 01:20:44;;;;;;;9.77;4.90;;;10.60;99.90;;;;;;5031007;28;20167;-46
2023/03/21 01:23:11;;;;;;;12.57;4.78;;;10.70;99.90;;;;;;5030325;28;20281;-46
2023/03/21 01:25:37;;;;;;;13.63;5.38;;;10.60;99.90;;;;;;5011293;28;20266;-46
2023/03/21 01:28:03;;;;;;;15.60;5.18;;;10.70;99.90;;;;;;5011258;28;20638;-46
2023/03/21 01:30:29;;;;;;;11.13;4.60;;;;;;;;;;5010867;28;20180;-45
2023/03/21 01:32:54;;;;;;;11.00;5.07;;;10.60;99.90;;;;;;5013172;28;20258;-46
2023/03/21 01:35:20;;;;;;;15.65;5.70;;;10.60;99.90;;;;;;5014302;28;20299;-48
2023/03/21 01:37:47;;;;;;;13.05;4.88;;;10.60;99.90;;;;;;5014848;28;20196;-47
2023/03/21 01:40:25;;;;;;;15.23;5.10;;;10.60;99.90;;;;;;5014748;28;20176;-48
2023/03/21 01:42:50;;;;;;;11.98;5.13;;;10.60;99.90;;;;;;5030317;28;20179;-48
2023/03/21 01:45:53;;;;;;;10.98;5.18;;;10.60;99.90;;;;;;5034268;28;20213;-47
2023/03/21 01:48:21;;;;;;;11.73;4.85;;;10.60;99.90;;;;;;5033814;28;20175;-46
2023/03/21 01:50:48;;;;;;;12.60;5.55;;;10.60;99.90;;;;;;5033689;28;20171;-46
2023/03/21 01:53:15;;;;;;;16.48;5.22;;;10.60;99.90;;;;;;5033690;28;20167;-47
2023/03/21 01:55:41;;;;;;;17.13;5.97;;;10.70;99.90;;;;;;5032916;28;20536;-46
2023/03/21 01:58:10;;;;;;;11.52;5.10;;;10.60;99.90;;;;;;5034248;28;20175;-46
2023/03/21 02:00:36;;;;;;;14.18;5.40;;;10.60;99.90;;;;;;5034469;28;20654;-45
2023/03/21 02:03:07;;;;;;;9.95;5.80;;;10.60;99.90;;;;;;5033481;28;20183;-46
2023/03/21 02:05:54;;;;;;;11.50;5.30;;;10.60;99.90;;;;;;5034034;28;20218;-46
2023/03/21 02:08:22;;;;;;;17.73;5.78;;;10.60;99.90;;;;;;5033522;28;20579;-45
2023/03/21 02:10:49;;;;;;;11.82;5.20;;;10.60;99.90;;;;;;5033725;28;20179;-46
2023/03/21 02:13:15;;;;;;;13.52;4.90;;;10.50;99.90;;;;;;5033529;28;20159;-46
2023/03/21 02:15:46;;;;;;;19.83;5.47;;;10.50;99.90;;;;;;5033477;28;20257;-48
2023/03/21 02:18:26;;;;;;;10.95;5.30;;;10.60;99.90;;;;;;5033504;28;20210;-45
2023/03/21 02:21:37;;;;;;;9.85;5.35;;;10.50;99.90;;;;;;5033725;28;20261;-46
2023/03/21 02:24:27;;;;;;;13.02;5.47;;;10.50;99.90;;;;;;5033478;28;20203;-46
2023/03/21 02:27:07;;;;;;;15.50;5.63;;;10.50;99.90;;;;;;5033005;28;20635;-47
2023/03/21 02:30:11;;;;;;;11.45;5.55;;;10.60;99.90;;;;;;5033838;28;20174;-46
2023/03/21 02:33:21;;;;;;;13.23;4.80;;;10.60;99.90;;;;;;5032923;28;20663;-47
2023/03/21 02:35:54;;;;;;;11.82;5.38;;;10.60;99.90;;;;;;5031011;28;20655;-47
2023/03/21 02:38:51;;;;;;;12.73;5.68;;;10.60;99.90;;;;;;5033182;28;20287;-48
2023/03/21 02:41:35;;;;;;;18.63;6.13;;;10.60;99.90;;;;;;5033070;28;20191;-47
2023/03/21 02:44:31;;;;;;;14.90;5.47;;;10.60;99.90;;;;;;5032126;28;20199;-46
2023/03/21 02:47:05;;;;;;;18.27;6.13;;;10.60;99.90;;;;;;5032704;28;20171;-46
2023/03/21 02:49:44;;;;;;;15.27;5.93;;;10.50;99.90;;;;;;5032942;28;20166;-46
2023/03/21 02:52:25;;;;;;;15.90;5.72;;;10.60;99.90;;;;;;5032771;28;20639;-47
2023/03/21 02:54:52;;;;;;;16.25;5.53;;;10.50;99.90;;;;;;5032741;28;20275;-46
2023/03/21 02:57:19;;;;;;;16.10;5.97;;;10.50;99.90;;;;;;5032706;28;20179;-49
2023/03/21 02:59:48;;;;;;;13.75;6.07;;;10.50;99.90;;;;;;5032539;28;20266;-46
2023/03/21 03:02:15;;;;;;;14.90;5.68;;;10.50;99.90;;;;;;5032584;28;20171;-46
2023/03/21 03:04:41;;;;;;;11.40;5.18;;;10.40;99.90;;;;;;5032678;28;20203;-46
2023/03/21 03:07:28;;;;;;;13.85;5.60;;;10.40;99.90;;;;;;5032722;28;20167;-46
2023/03/21 03:10:11;;;;;;;14.27;5.70;;;10.40;99.90;;;;;;5032520;28;20202;-47
2023/03/21 03:13:12;;;;;;;13.18;5.45;;;10.40;99.90;;;;;;5032637;28;20711;-47
2023/03/21 03:15:58;;;;;;;13.63;6.32;;;10.40;99.90;;;;;;5030678;28;20602;-47
2023/03/21 03:18:36;;;;;;;14.25;5.72;;;10.40;99.90;;;;;;5032532;28;20722;-47
2023/03/21 03:21:38;;;;;;;15.93;5.95;;;10.40;99.90;;;;;;5032433;28;20171;-46
2023/03/21 03:24:25;;;;;;;12.85;6.13;;;10.30;99.90;;;;;;5032614;28;20238;-46
2023/03/21 03:27:09;;;;;;;13.15;5.25;;;10.40;99.90;;;;;;5032040;28;20262;-47
2023/03/21 03:29:39;;;;;;;11.68;5.72;;;10.30;99.90;;;;;;5032714;28;20181;-46
2023/03/21 03:32:19;;;;;;;14.00;5.53;;;10.30;99.90;;;;;;5032445;28;20164;-47
2023/03/21 03:34:49;;;;;;;11.18;5.82;;;10.30;99.90;;;;;;5032312;28;20175;-47
2023/03/21 03:37:20;;;;;;;14.80;5.30;;;10.30;99.90;;;;;;5031994;28;20270;-48
2023/03/21 03:40:09;;;;;;;11.48;5.55;;;10.30;99.90;;;;;;5032378;28;20172;-48
2023/03/21 03:42:40;;;;;;;12.20;5.57;;;10.40;99.90;;;;;;5032047;28;20651;-46
2023/03/21 03:45:08;;;;;;;12.38;5.03;;;10.30;99.90;;;;;;5032410;28;20732;-48
2023/03/21 03:47:46;;;;;;;14.30;5.55;;;10.40;99.90;;;;;;5031763;28;20643;-46
2023/03/21 03:50:26;;;;;;;14.52;5.82;;;10.40;99.90;;;;;;5032325;28;20212;-46
2023/03/21 03:52:58;;;;;;;10.90;4.82;;;10.30;99.90;;;;;;5031661;28;20163;-49
2023/03/21 03:55:26;;;;;;;14.02;5.45;;;10.30;99.90;;;;;;5031449;28;20170;-51
2023/03/21 03:57:52;;;;;;;12.80;5.57;;;10.30;99.90;;;;;;5031438;28;20171;-47
2023/03/21 04:00:19;;;;;;;18.55;6.13;;;10.30;99.90;;;;;;5031679;28;20163;-46
2023/03/21 04:02:45;;;;;;;9.75;5.25;;;10.30;99.90;;;;;;5031758;28;20199;-46
2023/03/21 04:05:10;;;;;;;14.90;6.07;;;10.30;99.90;;;;;;5031355;28;20296;-46
2023/03/21 04:07:36;;;;;;;13.93;5.40;;;;;;;;;;5031877;28;20264;-46
2023/03/21 04:10:03;;;;;;;10.77;5.47;;;10.30;99.90;;;;;;5031538;28;20202;-46
2023/03/21 04:12:29;;;;;;;13.93;6.07;;;10.20;99.90;;;;;;5032109;28;20175;-45
2023/03/21 04:14:55;;;;;;;18.70;5.90;;;10.20;99.90;;;;;;5031160;28;20167;-46
2023/03/21 04:17:20;;;;;;;14.73;6.10;;;10.20;99.90;;;;;;5030623;28;20182;-47
2023/03/21 04:19:46;;;;;;;11.88;5.35;;;10.20;99.90;;;;;;5031391;28;20171;-46
2023/03/21 04:22:12;;;;;;;14.02;6.18;;;10.20;99.90;;;;;;5031360;28;20168;-47
2023/03/21 04:24:38;;;;;;;15.63;6.00;;;10.10;99.90;;;;;;5031161;28;20221;-47
2023/03/21 04:27:04;;;;;;;12.77;6.00;;;10.20;99.90;;;;;;5031093;28;20178;-46
2023/03/21 04:29:31;;;;;;;10.45;4.97;;;10.20;99.90;;;;;;5030838;28;20201;-46
2023/03/21 04:31:57;;;;;;;10.35;5.50;;;10.20;99.90;;;;;;5031195;28;20221;-46
2023/03/21 04:34:26;;;;;;;11.02;5.13;;;10.20;99.90;;;;;;5031035;28;20163;-46
2023/03/21 04:36:53;;;;;;;20.27;6.05;;;10.20;99.90;;;;;;5031348;28;20167;-46
2023/03/21 04:39:19;;;;;;;14.02;6.10;;;10.20;99.90;;;;;;5031128;28;20179;-46
2023/03/21 04:41:45;;;;;;;13.73;6.22;;;10.20;99.90;;;;;;5030870;28;20217;-47
2023/03/21 04:44:13;;;;;;;10.30;4.68;;;10.20;99.90;;;;;;5031035;28;20203;-48
2023/03/21 04:46:39;;;;;;;16.52;6.45;;;10.20;99.90;;;;;;5031068;28;20163;-46
2023/03/21 04:49:05;;;;;;;13.82;5.70;;;10.20;99.90;;;;;;5030529;28;20182;-46
2023/03/21 04:51:32;;;;;;;13.65;6.07;;;10.20;99.90;;;;;;5031487;28;20195;-47
2023/03/21 04:53:57;;;;;;;13.38;6.18;;;10.20;99.90;;;;;;5030974;28;20167;-46
2023/03/21 04:56:30;;;;;;;11.20;5.28;;;10.20;99.90;;;;;;5030848;28;20281;-46
2023/03/21 04:59:01;;;;;;;12.63;4.57;;;10.20;99.90;;;;;;5031166;28;20180;-46
2023/03/21 05:01:30;;;;;;;12.65;5.20;;;10.20;99.90;;;;;;5030726;28;20201;-46
2023/03/21 05:03:59;;;;;;;10.35;4.63;;;10.20;99.90;;;;;;5030687;28;20198;-46
2023/03/21 05:06:26;;;;;;;8.57;4.95;;;10.30;99.90;;;;;;5031113;28;20210;-46
2023/03/21 05:08:53;;;;;;;14.13;6.05;;;10.30;99.90;;;;;;5034265;28;20207;-48
2023/03/21 05:11:19;;;;;;;11.43;5.05;;;10.30;99.90;;;;;;5034651;28;20638;-46
2023/03/21 05:13:45;;;;;;;15.65;5.70;;;10.40;99.90;;;;;;5034749;28;20218;-47
2023/03/21 05:16:10;;;;;;;11.95;5.22;;;10.40;99.90;;;;;;5034581;28;20171;-46
2023/03/21 05:18:37;;;;;;;8.90;5.15;;;10.40;99.90;;;;;;5035363;28;20516;-46
2023/03/21 05:21:06;;;;;;;12.02;4.63;;;10.40;99.90;;;;;;5034751;28;20186;-46
2023/03/21 05:23:37;;;;;;;9.40;4.80;;;10.40;99.90;;;;;;5034652;28;20206;-48
2023/03/21 05:26:06;;;;;;;9.13;4.60;;;10.40;99.90;;;;;;5034683;28;20635;-46
2023/03/21 05:28:35;;;;;;;12.68;5.57;;;10.40;99.90;;;;;;5034816;28;20338;-45
2023/03/21 05:31:05;;;;;;;10.75;5.38;;;10.40;99.90;;;;;;5034666;28;20179;-46
2023/03/21 05:33:31;;;;;;;13.45;5.45;;;10.40;99.90;;;;;;5034540;28;20199;-47
2023/03/21 05:35:57;;;;;;;15.10;5.75;;;10.30;99.90;;;;;;5034202;28;20198;-47
2023/03/21 05:38:23;;;;;;;14.70;5.38;;;10.30;99.90;;;;;;5033892;28;20179;-48
2023/03/21 05:40:49;;;;;;;13.98;5.47;;;10.30;99.90;;;;;;5033875;28;20173;-46
2023/03/21 05:43:15;;;;;;;15.02;5.55;;;10.20;99.90;;;;;;5034342;28;20171;-46
2023/03/21 05:45:40;;;;;;;10.07;4.82;;;10.20;99.90;;;;;;5033875;28;20168;-47
2023/03/21 05:48:06;;;;;;;15.43;5.47;;;10.30;99.90;;;;;;5033806;28;20171;-46
2023/03/21 05:50:32;;;;;;;13.05;5.28;;;10.20;99.90;;;;;;5033862;28;20206;-46
2023/03/21 05:52:57;;;;;;;13.30;4.85;;;10.30;99.90;;;;;;5033819;28;20541;-46
2023/03/21 05:55:23;;;;;;;14.27;5.47;;;10.20;99.90;;;;;;5033866;28;20198;-47
2023/03/21 05:57:49;;;;;;;12.40;5.60;;;10.20;99.90;;;;;;5033637;28;20175;-46
2023/03/21 06:00:15;;;;;;;13.95;5.93;;;10.30;99.90;;;;;;5033746;28;20620;-46
2023/03/21 06:02:40;;;;;;;8.88;5.53;;;10.20;99.90;;;;;;5033604;28;20229;-46
2023/03/21 06:05:06;;;;;;;13.25;5.55;;;10.30;99.90;;;;;;5033917;28;20305;-45
2023/03/21 06:07:32;;;;;;;9.93;5.47;;;10.20;99.90;;;;;;5033689;28;20269;-46
2023/03/21 06:09:58;;;;;;;13.27;5.72;;;10.30;99.90;;;;;;5032930;28;20178;-46
2023/03/21 06:12:24;;;;;;;15.55;6.65;;;;;;;;;;5033588;28;20167;-45
2023/03/21 06:14:49;;;;;;;19.17;7.10;;;10.30;99.90;;;;;;5033751;28;20317;-46
2023/03/21 06:17:15;;;;;;;12.55;6.03;;;10.40;99.90;;;;;;5033430;28;20242;-47
2023/03/21 06:19:41;;;;;;;14.85;6.50;;;10.30;99.90;;;;;;5032110;28;20225;-46
2023/03/21 06:22:06;;;;;;;11.13;5.80;;;10.40;99.90;;;;;;5034156;28;20171;-46
2023/03/21 06:24:32;;;;;;;12.00;4.97;;;10.40;99.90;;;;;;5033455;28;20658;-47
2023/03/21 06:26:57;;;;;;;11.88;6.20;;;10.40;99.90;;;;;;5033309;28;20167;-46
2023/03/21 06:29:23;;;;;;;12.43;6.15;;;10.40;99.90;;;;;;5032973;28;20249;-46
2023/03/21 06:31:49;;;;;;;16.85;7.78;;;10.40;99.90;;;;;;5033167;28;20175;-46
2023/03/21 06:34:14;;;;;;;16.50;6.47;;;10.40;99.90;;;;;;5033207;28;20529;-46
2023/03/21 06:36:40;;;;;;;18.02;6.68;;;10.40;99.90;;;;;;5033084;28;20246;-46
2023/03/21 06:39:07;;;;;;;16.65;7.57;;;;;;;;;;5033160;28;20225;-46
2023/03/21 06:41:32;;;;;;;14.93;6.43;;;10.50;99.90;;;;;;5033084;28;20511;-46
2023/03/21 06:43:58;;;;;;;22.63;7.65;;;10.50;99.90;;;;;;5032639;28;20222;-46
2023/03/21 06:46:24;;;;;;;18.13;7.90;;;10.40;99.90;;;;;;5033089;28;20175;-46
2023/03/21 06:48:49;;;;;;;18.58;7.55;;;10.50;99.90;;;;;;5033057;28;20183;-46
2023/03/21 06:51:15;;;;;;;22.63;8.05;;;;;;;;;;5032872;28;20255;-47
2023/03/21 06:53:41;;;;;;;15.30;6.97;;;10.40;99.90;;;;;;5030218;28;20389;-45
2023/03/21 06:56:08;;;;;;;16.60;7.30;;;10.40;99.90;;;;;;5031621;28;20224;-49
2023/03/21 06:58:35;;;;;;;13.82;6.72;;;;;;;;;;5031620;28;20202;-47
2023/03/21 07:01:01;;;;;;;15.85;6.30;;;10.40;99.90;;;;;;5031521;28;20270;-46
2023/03/21 07:03:27;;;;;;;15.07;6.18;;;10.30;99.90;;;;;;5031406;28;20178;-46
2023/03/21 07:05:53;;;;;;;13.15;5.47;;;10.30;99.90;;;;;;5031411;28;20178;-46
2023/03/21 07:08:19;;;;;;;10.07;5.43;;;10.20;99.90;;;;;;5030918;28;20215;-46
2023/03/21 07:10:46;;;;;;;13.40;5.45;;;10.20;99.90;;;;;;5030981;28;20650;-46
2023/03/21 07:13:12;;;;;;;12.23;5.68;;;10.20;99.90;;;;;;5031359;28;20195;-48
2023/03/21 07:15:38;;;;;;;14.50;5.10;;;;;;;;;;5031445;28;20171;-48
2023/03/21 07:18:05;;;;;;;12.05;5.82;;;10.20;99.90;;;;;;5031305;28;20168;-48
2023/03/21 07:20:30;;;;;;;15.45;5.95;;;10.40;99.90;;;;;;5030870;28;20185;-46
2023/03/21 07:22:57;;;;;;;15.05;6.75;;;10.50;99.90;;;;;;5030841;28;20804;-46
2023/03/21 07:25:22;;;;;;;12.13;5.25;;;10.50;99.90;;;;;;5030762;28;20213;-46
2023/03/21 07:27:49;;;;;;;11.23;5.47;;;10.60;99.90;;;;;;5030600;28;20250;-46
2023/03/21 07:30:15;;;;;;;15.07;5.13;;;10.60;99.90;;;;;;5030622;28;20182;-46
2023/03/21 07:32:41;;;;;;;9.95;4.60;;;10.60;99.90;;;;;;5030633;28;20258;-46
2023/03/21 07:35:12;;;;;;;13.25;5.13;;;10.60;99.90;;;;;;5031160;28;20175;-47
2023/03/21 07:37:38;;;;;;;15.93;6.03;;;10.60;99.90;;;;;;5030758;28;20189;-45
2023/03/21 07:40:09;;;;;;;14.40;6.43;;;10.70;99.90;;;;;;5030930;28;20178;-46
2023/03/21 07:42:41;;;;;;;12.18;6.50;;;10.70;99.90;;;;;;5030999;28;20635;-46
2023/03/21 07:45:08;;;;;;;16.05;6.20;;;10.60;99.90;;;;;;5030950;28;20278;-46
2023/03/21 07:47:34;;;;;;;16.05;5.90;;;;;;;;;;5030269;28;20258;-46
2023/03/21 07:50:00;;;;;;;16.27;7.13;;;10.60;99.90;;;;;;5029917;28;20635;-46
2023/03/21 07:52:26;;;;;;;17.38;6.70;;;;;;;;;;5030289;28;20178;-46
2023/03/21 07:54:52;;;;;;;18.98;7.32;;;10.40;99.90;;;;;;5030537;28;20449;-48
2023/03/21 07:57:17;;;;;;;15.23;7.50;;;10.40;99.90;;;;;;5030215;28;20220;-46
2023/03/21 07:59:43;;;;;;;16.52;7.50;;;10.30;99.90;;;;;;5030397;28;20799;-46
2023/03/21 08:02:16;;;;;;;18.15;7.20;;;10.40;99.90;;;;;;5028023;28;20176;-46
2023/03/21 08:04:42;;;;;;;16.92;7.03;;;10.30;99.90;;;;;;5029996;28;20207;-46
2023/03/21 08:07:08;;;;;;;16.98;6.30;;;;;;;;;;5030383;28;20171;-46
2023/03/21 08:09:35;;;;;;;22.65;6.50;;;10.40;99.90;;;;;;5030124;28;20221;-46
2023/03/21 08:12:00;;;;;;;15.75;7.13;;;;;;;;;;5030151;28;20245;-47
2023/03/21 08:14:26;;;;;;;14.30;7.05;;;10.50;99.90;;;;;;5030438;28;20625;-46
2023/03/21 08:16:52;;;;;;;14.52;7.35;;;10.50;99.90;;;;;;5029926;28;20584;-46
2023/03/21 08:19:20;;;;;;;17.13;6.95;;;10.50;99.90;;;;;;5029930;28;20754;-46
2023/03/21 08:21:46;;;;;;;16.45;6.40;;;10.50;99.90;;;;;;5029895;28;20178;-47
2023/03/21 08:24:12;;;;;;;12.50;5.93;;;10.40;99.90;;;;;;5029913;28;20241;-46
2023/03/21 08:26:38;;;;;;;12.27;6.00;;;;;;;;;;5030135;28;20242;-47
2023/03/21 08:29:04;;;;;;;15.25;5.88;;;;;;;;;;5030156;28;20204;-46
2023/03/21 08:31:30;;;;;;;11.38;5.40;;;10.50;99.90;;;;;;5030016;28;20171;-46
2023/03/21 08:33:56;;;;;;;8.70;4.75;;;;;;;;;;5028688;28;20171;-45
2023/03/21 08:36:22;;;;;;;10.75;5.28;;;10.60;99.90;;;;;;5029816;28;20171;-45
2023/03/21 08:38:52;;;;;;;9.20;5.05;;;10.60;99.90;;;;;;5029566;28;20202;-46
2023/03/21 08:41:20;;;;;;;16.60;5.78;;;10.60;99.90;;;;;;5028910;28;20507;-46
2023/03/21 08:43:47;;;;;;;8.18;4.90;;;10.60;99.90;;;;;;5029899;28;20265;-46
2023/03/21 08:46:13;;;;;;;13.90;6.00;;;10.70;99.90;;;;;;5029768;28;20523;-46
2023/03/21 08:48:39;;;;;;;8.57;5.25;;;;;;;;;;5029232;28;20185;-46
2023/03/21 08:51:05;;;;;;;16.02;5.10;;;10.70;99.90;;;;;;5030006;28;20171;-45
2023/03/21 08:53:32;;;;;;;11.20;5.63;;;10.60;99.90;;;;;;5029788;28;20171;-46
2023/03/21 08:55:58;;;;;;;14.27;5.30;;;;;;;;;;5029410;28;20171;-46
2023/03/21 08:58:23;;;;;;;11.90;5.22;;;10.80;99.90;;;;;;5029639;28;20242;-46
2023/03/21 09:00:49;;;;;;;11.73;5.35;;;10.70;99.90;;;;;;5029485;28;20266;-46
2023/03/21 09:03:15;;;;;;;9.93;5.40;;;10.80;99.90;;;;;;5029518;28;20171;-46
2023/03/21 09:05:40;;;;;;;8.63;4.80;;;10.80;99.90;;;;;;5029333;28;20222;-46
2023/03/21 09:08:06;;;;;;;12.73;5.72;;;;;;;;;;5029498;28;20730;-47
2023/03/21 09:10:32;;;;;;;11.20;4.72;;;10.80;99.90;;;;;;5029704;28;20218;-50
2023/03/21 09:12:58;;;;;;;8.88;5.07;;;;;;;;;;5029567;28;20567;-46
2023/03/21 09:15:27;;;;;;;9.18;4.60;;;10.90;99.90;;;;;;5029294;28;20693;-46
2023/03/21 09:17:55;;;;;;;11.52;4.93;;;11.00;99.90;;;;;;5028937;28;20551;-47
2023/03/21 09:20:29;;;;;;;8.15;4.13;;;11.00;99.90;;;;;;5029537;28;20176;-46
2023/03/21 09:22:55;;;;;;;7.10;4.45;;;;;;;;;;5029077;28;20183;-48
2023/03/21 09:25:22;;;;;;;9.55;4.93;;;11.30;99.90;;;;;;5029347;28;20215;-46
2023/03/21 09:27:50;;;;;;;9.13;4.63;;;11.30;99.90;;;;;;5029378;28;20259;-54
2023/03/21 09:30:18;;;;;;;15.20;4.93;;;11.10;99.90;;;;;;5029291;28;20171;-57
2023/03/21 09:32:48;;;;;;;9.55;4.22;;;11.10;99.90;;;;;;5029401;28;20225;-47
2023/03/21 09:35:17;;;;;;;8.80;5.78;;;11.10;99.90;;;;;;5029283;28;20584;-50
2023/03/21 09:37:43;;;;;;;7.95;4.55;;;11.30;99.90;;;;;;5029203;28;20171;-47
2023/03/21 09:40:44;;;;;;;9.98;4.65;;;11.20;99.90;;;;;;5029343;28;20175;-46
2023/03/21 09:43:25;;;;;;;9.70;4.72;;;11.30;99.90;;;;;;5028181;28;20182;-49
2023/03/21 09:46:01;;;;;;;10.43;4.63;;;11.40;99.90;;;;;;5027889;28;20274;-48
2023/03/21 09:49:00;;;;;;;7.50;4.43;;;11.50;99.90;;;;;;5028991;28;20270;-48
2023/03/21 09:51:35;;;;;;;8.40;5.10;;;11.60;99.90;;;;;;5020202;28;20198;-46
2023/03/21 09:54:07;;;;;;;10.57;4.60;;;11.50;99.90;;;;;;5031495;28;20181;-45
2023/03/21 09:56:35;;;;;;;10.90;4.70;;;11.60;99.90;;;;;;5032800;28;20241;-46
2023/03/21 09:59:06;;;;;;;9.30;4.13;;;11.60;99.90;;;;;;5032414;28;20201;-46
2023/03/21 10:01:40;;;;;;;9.63;4.40;;;11.60;99.90;;;;;;5032633;28;20534;-46
2023/03/21 10:04:10;;;;;;;11.43;4.35;;;11.70;99.90;;;;;;5032976;28;20213;-46
2023/03/21 10:06:40;;;;;;;9.65;4.63;;;11.70;99.90;;;;;;5032798;28;20569;-46
2023/03/21 10:09:13;;;;;;;8.93;3.72;;;11.80;99.90;;;;;;5032327;28;20219;-46
2023/03/21 10:11:49;;;;;;;11.10;4.30;;;11.90;99.90;;;;;;5032499;28;20175;-46
2023/03/21 10:14:24;;;;;;;8.50;3.85;;;11.90;99.90;;;;;;5032153;28;20552;-47
2023/03/21 10:16:58;;;;;;;8.32;4.75;;;11.90;99.90;;;;;;5031968;28;20212;-46
2023/03/21 10:19:26;;;;;;;9.25;4.68;;;11.90;99.90;;;;;;5031655;28;20174;-47
2023/03/21 10:21:52;;;;;;;8.38;4.75;;;11.90;99.90;;;;;;5030709;28;20178;-47
2023/03/21 10:24:27;;;;;;;11.35;4.78;;;11.90;99.90;;;;;;5031952;28;20195;-48
2023/03/21 10:26:53;;;;;;;12.60;5.57;;;11.80;99.90;;;;;;5031875;28;20178;-46
2023/03/21 10:29:24;;;;;;;9.38;4.55;;;11.80;99.90;;;;;;5032047;28;20179;-46
2023/03/21 10:31:53;;;;;;;9.57;4.78;;;11.80;99.90;;;;;;5032020;28;20301;-45
2023/03/21 10:34:31;;;;;;;10.80;4.50;;;11.80;99.90;;;;;;5031920;28;20544;-46
2023/03/21 10:37:02;;;;;;;9.95;5.13;;;11.70;99.90;;;;;;5031618;28;20178;-46
2023/03/21 10:39:40;;;;;;;12.05;5.00;;;11.70;99.90;;;;;;5032003;28;20194;-46
2023/03/21 10:42:22;;;;;;;12.27;5.05;;;11.80;99.90;;;;;;5032124;28;20160;-46
2023/03/21 10:44:50;;;;;;;14.18;4.82;;;11.70;99.90;;;;;;5031809;28;20211;-48
2023/03/21 10:47:35;;;;;;;12.88;5.15;;;11.80;99.90;;;;;;5030147;28;20167;-45
2023/03/21 10:50:10;;;;;;;9.73;4.85;;;11.90;99.90;;;;;;5031767;28;20170;-46
2023/03/21 10:52:41;;;;;;;14.77;7.10;;;12.00;99.90;;;;;;5032097;28;20796;-46
2023/03/21 10:55:27;;;;;;;10.77;6.18;;;12.10;99.90;;;;;;5032119;28;20534;-45
2023/03/21 10:58:01;;;;;;;12.30;5.55;;;12.10;99.90;;;;;;5029746;28;20193;-46
2023/03/21 11:00:32;;;;;;;10.07;4.38;;;12.00;99.90;;;;;;5031583;28;20179;-45
2023/03/21 11:02:59;;;;;;;11.52;4.70;;;11.90;99.90;;;;;;5031304;28;20179;-46
2023/03/21 11:05:34;;;;;;;9.82;4.28;;;12.00;99.90;;;;;;5030723;28;20677;-45
2023/03/21 11:08:03;;;;;;;8.98;4.70;;;12.00;99.90;;;;;;5030896;28;20215;-46
2023/03/21 11:10:32;;;;;;;9.18;4.88;;;12.20;99.90;;;;;;5030957;28;20254;-46
2023/03/21 11:13:04;;;;;;;11.90;5.15;;;12.20;99.90;;;;;;5031050;28;20253;-46
2023/03/21 11:15:43;;;;;;;9.50;5.22;;;12.40;99.90;;;;;;5031108;28;20349;-46
2023/03/21 11:18:19;;;;;;;11.23;4.90;;;12.20;99.90;;;;;;5030871;28;20182;-46
2023/03/21 11:20:54;;;;;;;11.02;5.22;;;12.10;99.90;;;;;;5031074;28;20171;-46
2023/03/21 11:23:24;;;;;;;11.10;5.55;;;12.30;99.90;;;;;;5030871;28;20257;-46
2023/03/21 11:25:49;;;;;;;11.50;5.00;;;12.30;99.90;;;;;;5031123;28;20273;-46
2023/03/21 11:28:19;;;;;;;8.70;4.53;;;12.30;99.90;;;;;;5030733;28;20671;-47
2023/03/21 11:30:54;;;;;;;11.43;4.90;;;12.30;99.90;;;;;;5030597;28;20171;-45
2023/03/21 11:33:25;;;;;;;9.30;5.38;;;12.40;99.90;;;;;;5030882;28;20179;-47
2023/03/21 11:36:03;;;;;;;8.45;5.15;;;12.40;99.90;;;;;;5030739;28;20190;-45
2023/03/21 11:38:32;;;;;;;7.55;4.55;;;12.30;99.90;;;;;;5029512;28;20172;-45
2023/03/21 11:41:01;;;;;;;15.25;5.60;;;12.20;99.90;;;;;;5030825;28;20211;-46
2023/03/21 11:43:30;;;;;;;11.63;5.18;;;12.30;99.90;;;;;;5030762;28;20229;-47
2023/03/21 11:46:12;;;;;;;8.88;5.50;;;12.20;99.90;;;;;;5030439;28;20171;-45
2023/03/21 11:48:39;;;;;;;13.70;5.95;;;;;;;;;;5030005;28;20187;-46
2023/03/21 11:51:26;;;;;;;11.00;5.88;;;12.30;99.90;;;;;;5030814;28;20182;-46
2023/03/21 11:54:04;;;;;;;9.90;6.13;;;12.20;99.90;;;;;;5030862;28;20174;-46
2023/03/21 11:56:39;;;;;;;13.38;6.47;;;12.20;99.90;;;;;;5030436;28;20518;-46
2023/03/21 11:59:14;;;;;;;10.23;6.30;;;12.00;99.90;;;;;;5030443;28;20635;-46
2023/03/21 12:02:14;;;;;;;12.93;7.63;;;12.10;99.90;;;;;;5030373;28;20313;-45
2023/03/21 12:04:57;;;;;;;11.93;7.22;;;12.00;99.90;;;;;;5030405;28;20214;-46
2023/03/21 12:07:46;;;;;;;10.18;5.70;;;12.10;99.90;;;;;;5029728;28;20203;-46
2023/03/21 12:10:47;;;;;;;9.85;5.35;;;12.10;99.90;;;;;;5030029;28;20174;-45
2023/03/21 12:13:18;;;;;;;10.20;5.95;;;12.00;99.90;;;;;;5030312;28;20202;-46
2023/03/21 12:16:15;;;;;;;12.15;6.30;;;12.00;99.90;;;;;;5029209;28;20206;-46
2023/03/21 12:18:59;;;;;;;7.78;4.28;;;11.90;99.90;;;;;;5029922;28;20224;-49
2023/03/21 12:21:41;;;;;;;13.35;5.40;;;12.00;99.90;;;;;;5030129;28;20171;-47
2023/03/21 12:24:14;;;;;;;7.85;4.75;;;12.10;99.90;;;;;;5030120;28;20202;-48
2023/03/21 12:27:03;;;;;;;9.70;4.28;;;12.20;99.90;;;;;;5029702;28;20274;-46
2023/03/21 12:29:42;;;;;;;6.63;4.00;;;12.40;99.90;;;;;;5029754;28;20266;-46
2023/03/21 12:32:35;;;;;;;9.02;4.03;;;12.50;99.90;;;;;;5029654;28;20163;-46
2023/03/21 12:35:46;;;;;;;5.80;3.75;;;12.60;99.90;;;;;;5029615;28;20171;-46
2023/03/21 12:38:38;;;;;;;6.85;4.03;;;12.70;99.90;;;;;;5029659;28;20250;-45
2023/03/21 12:41:38;;;;;;;9.15;4.43;;;12.70;99.90;;;;;;5030157;28;20391;-46
2023/03/21 12:44:13;;;;;;;7.15;3.67;;;12.80;99.90;;;;;;5030043;28;20303;-46
2023/03/21 12:47:20;;;;;;;6.45;4.28;;;12.80;99.90;;;;;;5029832;28;20568;-46
2023/03/21 12:49:55;;;;;;;10.05;5.40;;;12.80;99.90;;;;;;5029794;28;20659;-46
2023/03/21 12:52:26;;;;;;;9.55;4.47;;;12.70;99.90;;;;;;5030189;28;20182;-46
2023/03/21 12:55:04;;;;;;;7.57;4.15;;;12.70;99.90;;;;;;5030196;28;20198;-46
2023/03/21 12:57:39;;;;;;;7.93;5.18;;;12.70;99.90;;;;;;5029811;28;20178;-45
2023/03/21 13:00:26;;;;;;;13.55;8.57;;;12.90;99.90;;;;;;5030556;28;20181;-46
2023/03/21 13:02:58;;;;;;;11.73;5.82;;;12.90;99.90;;;;;;5029832;28;20246;-47
2023/03/21 13:05:34;;;;;;;24.48;13.98;;;12.80;99.90;;;;;;5029650;28;20679;-47
2023/03/21 13:08:18;;;;;;;11.15;7.00;;;12.80;99.90;;;;;;5029658;28;20222;-45
2023/03/21 13:10:45;;;;;;;8.27;5.03;;;12.80;99.90;;;;;;5029962;28;20175;-45